Pagina principale
METAR-TAF:

METAR-TAF

Aeroporti :

Parco nazionale Kruger, Sudafrica

latitudine: 25-23-00S, longitudine: 31-06-20E, altezza: 862 m

Osservazione

Il bollettino è stato emesso 58 minuti fa, alle 02:00 UTC
Vento 6 kt da sud
Temperature 16°C
Umidità 82%
Pressione 1023 hPa

METAR: FAKN 240200Z AUTO 18006KT //// // ////// 16/13 Q1023

Ora: 04:58 (02:58 UTC)

Previsione

Il bollettino è stato emesso 17 ore e 58 minuti fa, alle 09:00 UTC
Previsione valida dal 23 alle 10 UTC al 23 alle 18 UTC
Vento 10 kt da sud/sud-est
Visibilità: 7000 m
Nuvoloso ad un'altezza di 1000 ft
pioggia debole
Temporaneamente
dal 23 alle 11 UTC al 23 alle 18 UTC
Visibilità: 4000 m
Poco nuvoloso ad un'altezza di 2500 ft, Cumulonembo.
temporale, pioggia

TAF: FAKN 230900Z 2310/2318 15010KT 7000 -RA BKN010 TX20/2312Z TN18/2318Z TEMPO 2311/2318 4000 TSRA FEW025CB

Osservazioni e previsioni meteorologiche di più di 4000 aeroporti (messaggi METAR e TAF).

Le stazioni disponibili sono rappresentate dai dischi gialli e rossi sulla carta.

Puntare il mouse per vedere il nome della stazione.

Clicca sopra per visualizzare le osservazioni e previsioni meteorologiche.

Per cambiare la mappa : fare clic sui pulsanti verdi con una croce nera per ingrandire, il pulsante verde con un trattino per diminuire, o sulla freccia verde per le mappe adiacenti.


METAR-TAF: